Jordan, MT (59337)

8:45 PM MDT on July 26, 2016 (GMT -0600)
Pines | | Change Station

Elev 2293 ft 47.83 °N, 106.64 °W | Updated 7 seconds ago

Clear
Clear
77.2 °F
Feels Like 79 °F
N
1.3
Wind Variable Wind from ENE
Gusts 2.5 mph

Today
High -- | Low -- °F
--% Chance of Precip.
Yesterday
High -- | Low -- °F
Precip. -- in
Pressure 29.99 in
Visibility 10.0 miles
Clouds Clear
Heat Index 79 °F
Dew Point 61 °F
Humidity 57%
Rainfall 0.02 in
Snow Depth Not available.
5:38 AM 8:48 PM
Waning Gibbous, 48% visible
METAR KGGW 270153Z AUTO 06015KT 10SM CLR 23/15 A3001 RMK AO2 SLP153 T02330150
Pressure 29.99 in
Visibility 10.0 miles
Clouds Clear
Heat Index 79 °F
Dew Point 61 °F
Humidity 57%
Rainfall 0.02 in
Snow Depth Not available.
5:38 AM 8:48 PM
Waning Gibbous, 48% visible
METAR KGGW 270153Z AUTO 06015KT 10SM CLR 23/15 A3001 RMK AO2 SLP153 T02330150

10-Day Weather Forecast

Almanac

Astronomy

Jul. 26, 2016 Rise Set
Actual Time
Civil Twilight
Nautical Twilight
Astronomical Twilight
Moon
Length of Visible Light
Length of Day
Tomorrow will be .
, % of the Moon is Illuminated

Today's Extremes

State Highs State Lows

Community

WunderPhotos

Upload Photos

1,927,784 photos uploaded!

WunderBlog® & News

Nearby

Air Quality

  Air Quality AQ Index Pollutant
Not available.

Snow Depth

Station Depth Elevation

Earthquake Activity

City Distance Mag. Time & Date
Minimum magnitude displayed is 2.5.

Coastal Water Temperatures

Place Temperature

Stations

Nearby Weather Stations

Station Location Temp. Windchill Dew Point Humidity Wind Precip. Elev Updated Type
                   

Watches & Warnings

There are currently no watches in effect.